Time;durP1;ratioP1;P1;durP2;ratioP2;P2;SDS_P1;SDS_P2;PMS_P1;PMS_P2;Temp;Humidity;BMP_temperature;BMP_pressure;BME280_temperature;BME280_humidity;BME280_pressure;Samples;Min_cycle;Max_cycle;Signal;HPM_P1;HPM_P2
2021/09/25 00:01:07;;;;;;;9.27;3.93;;;;;;;;;;5068217;28;20274;-76
2021/09/25 00:03:35;;;;;;;12.93;4.20;;;;;;;;;;5067690;28;20282;-76
2021/09/25 00:06:01;;;;;;;7.77;4.30;;;;;;;;;;5068313;28;20617;-76
2021/09/25 00:08:27;;;;;;;8.47;4.00;;;;;;;;;;5067724;28;20213;-76
2021/09/25 00:10:54;;;;;;;9.53;4.30;;;;;;;;;;5068119;28;20705;-76
2021/09/25 00:13:21;;;;;;;9.47;3.93;;;;;;;;;;5067963;28;20269;-76
2021/09/25 00:15:47;;;;;;;8.73;4.23;;;;;;;;;;5067686;28;20216;-76
2021/09/25 00:18:14;;;;;;;9.37;4.03;;;;;;;;;;5067637;28;20233;-76
2021/09/25 00:20:42;;;;;;;12.67;4.73;;;;;;;;;;5067708;28;20216;-76
2021/09/25 00:23:09;;;;;;;8.63;3.80;;;;;;;;;;5068225;28;20615;-76
2021/09/25 00:25:35;;;;;;;9.30;4.30;;;;;;;;;;5067782;28;20270;-76
2021/09/25 00:28:02;;;;;;;8.93;3.90;;;;;;;;;;5068577;28;20211;-76
2021/09/25 00:30:28;;;;;;;9.57;4.30;;;;;;;;;;5067658;28;20205;-76
2021/09/25 00:32:55;;;;;;;7.87;4.37;;;;;;;;;;5068359;28;20279;-76
2021/09/25 00:35:21;;;;;;;16.73;4.97;;;;;;;;;;5069951;28;20268;-76
2021/09/25 00:37:49;;;;;;;11.60;4.90;;;;;;;;;;5071596;28;21304;-77
2021/09/25 00:40:17;;;;;;;11.30;4.83;;;;;;;;;;5071524;28;20217;-76
2021/09/25 00:42:45;;;;;;;9.30;5.07;;;;;;;;;;5071555;28;20259;-76
2021/09/25 00:45:13;;;;;;;10.17;5.00;;;;;;;;;;5071742;28;20321;-76
2021/09/25 00:47:39;;;;;;;8.40;4.63;;;;;;;;;;5071841;28;20245;-76
2021/09/25 00:50:08;;;;;;;9.47;4.73;;;;;;;;;;5071628;28;20225;-77
2021/09/25 00:52:34;;;;;;;11.37;5.43;;;;;;;;;;5071093;28;20282;-76
2021/09/25 00:55:03;;;;;;;9.83;5.30;;;;;;;;;;5071327;28;20237;-77
2021/09/25 00:57:29;;;;;;;11.30;4.47;;;;;;;;;;5070553;28;20237;-77
2021/09/25 00:59:56;;;;;;;10.47;5.27;;;;;;;;;;5071427;28;20662;-76
2021/09/25 01:02:23;;;;;;;10.53;5.23;;;;;;;;;;5070964;28;20227;-76
2021/09/25 01:04:50;;;;;;;12.43;5.13;;;;;;;;;;5070724;28;20274;-77
2021/09/25 01:07:17;;;;;;;10.23;5.27;;;;;;;;;;5071250;28;20217;-76
2021/09/25 01:09:43;;;;;;;8.73;4.83;;;;;;;;;;5070818;28;20210;-76
2021/09/25 01:12:12;;;;;;;10.10;5.17;;;;;;;;;;5070639;28;20221;-76
2021/09/25 01:14:38;;;;;;;10.73;5.00;;;;;;;;;;5071061;28;20215;-77
2021/09/25 01:17:07;;;;;;;9.60;5.40;;;;;;;;;;5070872;28;20241;-76
2021/09/25 01:19:34;;;;;;;9.93;5.33;;;;;;;;;;5070406;28;20217;-76
2021/09/25 01:22:03;;;;;;;11.73;5.93;;;;;;;;;;5070923;28;20288;-76
2021/09/25 01:24:30;;;;;;;11.27;6.47;;;;;;;;;;5070406;28;20217;-76
2021/09/25 01:26:58;;;;;;;8.83;5.33;;;;;;;;;;5070249;28;20667;-76
2021/09/25 01:29:25;;;;;;;10.43;5.27;;;;;;;;;;5069492;28;20213;-76
2021/09/25 01:31:52;;;;;;;9.70;5.77;;;;;;;;;;5069537;28;21167;-76
2021/09/25 01:34:19;;;;;;;10.00;5.43;;;;;;;;;;5069882;28;20577;-76
2021/09/25 01:36:45;;;;;;;14.13;5.50;;;;;;;;;;5069076;28;20263;-76
2021/09/25 01:39:13;;;;;;;12.70;5.70;;;;;;;;;;5069810;28;20228;-77
2021/09/25 01:41:40;;;;;;;9.13;5.17;;;;;;;;;;5070125;28;20215;-76
2021/09/25 01:44:06;;;;;;;12.63;5.70;;;;;;;;;;5070716;28;20217;-76
2021/09/25 01:46:33;;;;;;;7.07;4.60;;;;;;;;;;5070619;28;20221;-76
2021/09/25 01:49:00;;;;;;;8.83;5.10;;;;;;;;;;5070212;28;20236;-77
2021/09/25 01:51:26;;;;;;;11.70;5.50;;;;;;;;;;5070021;28;20213;-77
2021/09/25 01:53:52;;;;;;;9.57;5.30;;;;;;;;;;5070154;28;20255;-77
2021/09/25 01:56:20;;;;;;;15.73;6.07;;;;;;;;;;5070897;28;20251;-76
2021/09/25 01:58:47;;;;;;;13.13;5.83;;;;;;;;;;5069780;28;20244;-76
2021/09/25 02:01:14;;;;;;;9.77;5.80;;;;;;;;;;5070697;28;20212;-77
2021/09/25 02:03:41;;;;;;;9.87;5.70;;;;;;;;;;5070116;28;20233;-77
2021/09/25 02:06:09;;;;;;;14.83;6.80;;;;;;;;;;5070567;28;20630;-77
2021/09/25 02:08:37;;;;;;;10.87;5.77;;;;;;;;;;5070362;28;20221;-76
2021/09/25 02:11:04;;;;;;;13.60;6.00;;;;;;;;;;5070888;28;20278;-77
2021/09/25 02:13:32;;;;;;;10.93;6.33;;;;;;;;;;5069945;28;20224;-77
2021/09/25 02:15:59;;;;;;;13.60;5.67;;;;;;;;;;5070422;28;20213;-76
2021/09/25 02:18:26;;;;;;;10.93;5.67;;;;;;;;;;5069296;28;20658;-76
2021/09/25 02:20:52;;;;;;;10.60;5.83;;;;;;;;;;5069708;28;20220;-76
2021/09/25 02:23:19;;;;;;;10.17;5.67;;;;;;;;;;5069835;28;20221;-76
2021/09/25 02:25:45;;;;;;;6.97;5.83;;;;;;;;;;5069703;28;20205;-77
2021/09/25 02:28:12;;;;;;;8.20;5.77;;;;;;;;;;5069345;28;20346;-76
2021/09/25 02:30:40;;;;;;;9.70;5.50;;;;;;;;;;5069330;28;20789;-76
2021/09/25 02:33:06;;;;;;;13.97;6.50;;;;;;;;;;5069585;28;20236;-76
2021/09/25 02:35:33;;;;;;;10.27;5.63;;;;;;;;;;5069048;28;20286;-76
2021/09/25 02:38:00;;;;;;;13.33;5.93;;;;;;;;;;5069265;28;20772;-76
2021/09/25 02:40:27;;;;;;;10.53;6.03;;;;;;;;;;5069812;28;20212;-77
2021/09/25 02:42:54;;;;;;;8.60;6.37;;;;;;;;;;5069180;28;20216;-77
2021/09/25 02:45:20;;;;;;;13.17;6.33;;;;;;;;;;5069517;28;20236;-77
2021/09/25 02:47:48;;;;;;;11.67;6.43;;;;;;;;;;5069472;28;20751;-77
2021/09/25 02:50:18;;;;;;;9.57;6.20;;;;;;;;;;5071038;28;20355;-78
2021/09/25 02:52:45;;;;;;;11.67;6.97;;;;;;;;;;5072125;28;20213;-78
2021/09/25 02:55:13;;;;;;;13.73;6.97;;;;;;;;;;5070424;28;20213;-76
2021/09/25 02:57:40;;;;;;;11.93;6.73;;;;;;;;;;5068696;28;20213;-76
2021/09/25 03:00:11;;;;;;;13.43;6.10;;;;;;;;;;5072868;28;20336;-77
2021/09/25 03:02:38;;;;;;;13.53;6.50;;;;;;;;;;5069646;28;20263;-76
2021/09/25 03:05:07;;;;;;;12.03;7.10;;;;;;;;;;5069862;28;20221;-76
2021/09/25 03:07:33;;;;;;;12.47;7.20;;;;;;;;;;5068898;28;20661;-77
2021/09/25 03:10:00;;;;;;;11.50;6.77;;;;;;;;;;5069166;28;20585;-76
2021/09/25 03:12:26;;;;;;;11.63;7.40;;;;;;;;;;5069423;28;20215;-76
2021/09/25 03:14:53;;;;;;;12.13;7.47;;;;;;;;;;5068578;28;20262;-76
2021/09/25 03:17:19;;;;;;;9.23;6.90;;;;;;;;;;5069017;28;20237;-76
2021/09/25 03:19:46;;;;;;;9.87;7.27;;;;;;;;;;5068336;28;20245;-76
2021/09/25 03:22:15;;;;;;;12.33;8.07;;;;;;;;;;5069020;28;20624;-77
2021/09/25 03:24:42;;;;;;;11.37;8.23;;;;;;;;;;5067761;28;20221;-76
2021/09/25 03:27:08;;;;;;;10.87;7.37;;;;;;;;;;5068624;28;20261;-76
2021/09/25 03:29:35;;;;;;;10.17;7.90;;;;;;;;;;5068598;28;20219;-76
2021/09/25 03:32:01;;;;;;;13.73;7.90;;;;;;;;;;5069719;28;20344;-77
2021/09/25 03:34:27;;;;;;;12.13;7.27;;;;;;;;;;5068021;28;20214;-76
2021/09/25 03:36:54;;;;;;;14.50;8.13;;;;;;;;;;5068683;28;20263;-76
2021/09/25 03:39:22;;;;;;;13.37;9.10;;;;;;;;;;5068155;28;20250;-76
2021/09/25 03:41:48;;;;;;;12.27;8.20;;;;;;;;;;5068432;28;20219;-76
2021/09/25 03:44:15;;;;;;;13.83;8.83;;;;;;;;;;5069129;28;20212;-77
2021/09/25 03:46:41;;;;;;;12.13;8.63;;;;;;;;;;5068307;28;20220;-77
2021/09/25 03:49:08;;;;;;;12.17;7.40;;;;;;;;;;5068492;28;20614;-76
2021/09/25 03:51:34;;;;;;;12.97;8.00;;;;;;;;;;5068982;28;20262;-76
2021/09/25 03:54:01;;;;;;;15.73;8.90;;;;;;;;;;5068560;28;20239;-76
2021/09/25 03:56:29;;;;;;;16.73;9.07;;;;;;;;;;5069127;28;20217;-76
2021/09/25 03:58:55;;;;;;;12.17;7.90;;;;;;;;;;5069007;28;20236;-76
2021/09/25 04:01:22;;;;;;;16.33;8.87;;;;;;;;;;5069027;28;20225;-76
2021/09/25 04:03:48;;;;;;;14.83;8.80;;;;;;;;;;5069025;28;20279;-76
2021/09/25 04:06:14;;;;;;;12.20;8.93;;;;;;;;;;5068064;28;20237;-76
2021/09/25 04:08:41;;;;;;;11.30;8.17;;;;;;;;;;5070390;28;20221;-76
2021/09/25 04:11:07;;;;;;;16.23;8.53;;;;;;;;;;5073448;28;20265;-76
2021/09/25 04:13:35;;;;;;;12.23;9.07;;;;;;;;;;5072974;28;20546;-76
2021/09/25 04:16:01;;;;;;;15.00;9.33;;;;;;;;;;5072886;28;20216;-77
2021/09/25 04:18:28;;;;;;;15.83;8.63;;;;;;;;;;5071957;28;20299;-76
2021/09/25 04:20:54;;;;;;;14.30;9.27;;;;;;;;;;5072916;28;20221;-76
2021/09/25 04:23:21;;;;;;;11.80;8.40;;;;;;;;;;5073614;28;20224;-78
2021/09/25 04:25:47;;;;;;;18.47;9.63;;;;;;;;;;5074359;28;20273;-76
2021/09/25 04:28:13;;;;;;;12.90;9.93;;;;;;;;;;5073452;28;20546;-76
2021/09/25 04:30:41;;;;;;;17.48;10.32;;;;;;;;;;5072240;28;20523;-75
2021/09/25 04:33:09;;;;;;;11.67;9.20;;;;;;;;;;5070325;28;20233;-74
2021/09/25 04:35:37;;;;;;;12.07;9.43;;;;;;;;;;5070751;28;20280;-75
2021/09/25 04:38:04;;;;;;;15.70;9.43;;;;;;;;;;5070617;28;20216;-75
2021/09/25 04:40:31;;;;;;;13.90;9.90;;;;;;;;;;5070199;28;20215;-75
2021/09/25 04:42:58;;;;;;;18.27;10.10;;;;;;;;;;5070434;28;20224;-75
2021/09/25 04:45:24;;;;;;;14.43;10.37;;;;;;;;;;5070887;28;20557;-75
2021/09/25 04:47:52;;;;;;;17.70;10.63;;;;;;;;;;5070116;28;20228;-75
2021/09/25 04:50:19;;;;;;;19.20;10.50;;;;;;;;;;5070318;28;20278;-75
2021/09/25 04:52:46;;;;;;;16.53;11.43;;;;;;;;;;5069639;28;20215;-74
2021/09/25 04:55:13;;;;;;;14.50;11.03;;;;;;;;;;5070697;28;20220;-75
2021/09/25 04:57:40;;;;;;;17.50;11.30;;;;;;;;;;5069966;28;20210;-75
2021/09/25 05:00:08;;;;;;;17.37;10.70;;;;;;;;;;5070202;28;20297;-74
2021/09/25 05:02:35;;;;;;;18.63;11.67;;;;;;;;;;5069378;28;20232;-75
2021/09/25 05:05:03;;;;;;;19.77;12.47;;;;;;;;;;5070144;28;20220;-75
2021/09/25 05:07:29;;;;;;;14.83;10.90;;;;;;;;;;5069845;28;20218;-75
2021/09/25 05:09:55;;;;;;;21.07;12.63;;;;;;;;;;5069898;28;20241;-75
2021/09/25 05:12:22;;;;;;;16.50;11.10;;;;;;;;;;5069700;28;20237;-75
2021/09/25 05:14:48;;;;;;;15.73;11.87;;;;;;;;;;5069540;28;20273;-74
2021/09/25 05:17:14;;;;;;;15.20;11.63;;;;;;;;;;5068347;28;20277;-75
2021/09/25 05:19:41;;;;;;;18.23;12.60;;;;;;;;;;5068573;28;20975;-75
2021/09/25 05:22:09;;;;;;;18.10;12.47;;;;;;;;;;5067779;28;20274;-75
2021/09/25 05:24:36;;;;;;;20.10;12.60;;;;;;;;;;5068474;28;20225;-75
2021/09/25 05:27:02;;;;;;;19.93;12.00;;;;;;;;;;5068222;28;20211;-75
2021/09/25 05:29:29;;;;;;;18.53;12.27;;;;;;;;;;5068747;28;20276;-75
2021/09/25 05:31:58;;;;;;;19.00;13.20;;;;;;;;;;5068766;28;20212;-75
2021/09/25 05:34:24;;;;;;;19.63;13.40;;;;;;;;;;5069383;28;20247;-75
2021/09/25 05:36:51;;;;;;;22.03;12.03;;;;;;;;;;5068530;28;20285;-75
2021/09/25 05:39:18;;;;;;;18.93;13.30;;;;;;;;;;5068796;28;20232;-74
2021/09/25 05:41:45;;;;;;;19.57;13.33;;;;;;;;;;5068866;28;20233;-75
2021/09/25 05:44:11;;;;;;;20.30;13.70;;;;;;;;;;5068386;28;20797;-75
2021/09/25 05:46:38;;;;;;;19.33;12.73;;;;;;;;;;5069034;28;20666;-74
2021/09/25 05:49:04;;;;;;;19.00;12.70;;;;;;;;;;5068369;28;20228;-77
2021/09/25 05:51:31;;;;;;;20.03;13.40;;;;;;;;;;5068367;28;20269;-75
2021/09/25 05:53:57;;;;;;;22.97;14.17;;;;;;;;;;5067953;28;20243;-75
2021/09/25 05:56:25;;;;;;;26.53;14.63;;;;;;;;;;5068383;28;20707;-75
2021/09/25 05:58:51;;;;;;;21.57;14.07;;;;;;;;;;5067287;28;20238;-75
2021/09/25 06:01:18;;;;;;;17.87;13.07;;;;;;;;;;5067898;28;20277;-75
2021/09/25 06:03:44;;;;;;;19.77;13.27;;;;;;;;;;5068114;28;20368;-75
2021/09/25 06:06:11;;;;;;;21.77;13.77;;;;;;;;;;5067572;28;20704;-75
2021/09/25 06:08:37;;;;;;;18.53;13.20;;;;;;;;;;5067057;28;20203;-75
2021/09/25 06:11:04;;;;;;;21.57;14.07;;;;;;;;;;5067451;28;20222;-75
2021/09/25 06:13:32;;;;;;;19.77;13.87;;;;;;;;;;5066458;28;20214;-75
2021/09/25 06:15:58;;;;;;;18.63;13.97;;;;;;;;;;5066691;28;20218;-74
2021/09/25 06:18:24;;;;;;;25.27;14.27;;;;;;;;;;5065196;28;20506;-75
2021/09/25 06:20:51;;;;;;;20.53;13.40;;;;;;;;;;5066759;28;20239;-75
2021/09/25 06:23:18;;;;;;;19.90;14.07;;;;;;;;;;5065931;28;20238;-75
2021/09/25 06:25:45;;;;;;;23.70;14.53;;;;;;;;;;5066099;28;20211;-75
2021/09/25 06:28:11;;;;;;;22.60;14.40;;;;;;;;;;5065716;28;20209;-74
2021/09/25 06:30:41;;;;;;;19.67;14.80;;;;;;;;;;5065741;28;20217;-75
2021/09/25 06:33:07;;;;;;;18.13;12.60;;;;;;;;;;5064936;28;20306;-75
2021/09/25 06:35:34;;;;;;;16.63;13.27;;;;;;;;;;5065626;28;20213;-74
2021/09/25 06:38:01;;;;;;;19.33;13.87;;;;;;;;;;5066075;28;20215;-74
2021/09/25 06:40:28;;;;;;;26.60;14.83;;;;;;;;;;5066202;28;20257;-75
2021/09/25 06:42:55;;;;;;;20.77;13.93;;;;;;;;;;5065470;28;20264;-74
2021/09/25 06:45:21;;;;;;;21.00;14.00;;;;;;;;;;5066165;28;20734;-74
2021/09/25 06:47:49;;;;;;;19.93;14.07;;;;;;;;;;5065103;28;20237;-75
2021/09/25 06:50:15;;;;;;;23.47;13.00;;;;;;;;;;5066456;28;21330;-74
2021/09/25 06:52:42;;;;;;;18.03;13.60;;;;;;;;;;5065515;28;20377;-75
2021/09/25 06:55:10;;;;;;;20.73;14.23;;;;;;;;;;5064964;28;20236;-75
2021/09/25 06:57:36;;;;;;;23.73;15.10;;;;;;;;;;5065610;28;20265;-74
2021/09/25 07:00:03;;;;;;;19.97;14.73;;;;;;;;;;5065761;28;20243;-74
2021/09/25 07:02:30;;;;;;;23.10;14.97;;;;;;;;;;5064736;28;20369;-75
2021/09/25 07:04:58;;;;;;;25.00;15.93;;;;;;;;;;5065412;28;20875;-74
2021/09/25 07:07:24;;;;;;;21.60;14.70;;;;;;;;;;5065268;28;20206;-74
2021/09/25 07:09:51;;;;;;;20.83;14.80;;;;;;;;;;5065365;28;20218;-74
2021/09/25 07:12:17;;;;;;;19.90;14.67;;;;;;;;;;5065493;28;20224;-74
2021/09/25 07:14:43;;;;;;;18.70;15.27;;;;;;;;;;5065223;28;20219;-74
2021/09/25 07:17:10;;;;;;;23.10;14.43;;;;;;;;;;5065349;28;20232;-74
2021/09/25 07:19:37;;;;;;;21.17;14.60;;;;;;;;;;5064440;28;20289;-74
2021/09/25 07:22:07;;;;;;;24.17;14.60;;;;;;;;;;5064750;28;20215;-74
2021/09/25 07:24:34;;;;;;;27.97;16.53;;;;;;;;;;5064070;28;20749;-75
2021/09/25 07:27:00;;;;;;;25.63;16.43;;;;;;;;;;5064276;28;20219;-74
2021/09/25 07:29:26;;;;;;;22.93;15.43;;;;;;;;;;5063794;28;20768;-74
2021/09/25 07:31:53;;;;;;;25.43;17.13;;;;;;;;;;5064358;28;20216;-74
2021/09/25 07:34:20;;;;;;;25.40;16.97;;;;;;;;;;5064444;28;20204;-74
2021/09/25 07:36:47;;;;;;;23.17;16.20;;;;;;;;;;5065061;28;20216;-74
2021/09/25 07:39:15;;;;;;;25.57;16.60;;;;;;;;;;5065031;28;20210;-74
2021/09/25 07:41:41;;;;;;;23.73;16.17;;;;;;;;;;5064425;28;20311;-74
2021/09/25 07:44:08;;;;;;;23.33;17.63;;;;;;;;;;5064912;28;20220;-74
2021/09/25 07:46:34;;;;;;;24.33;17.27;;;;;;;;;;5064810;28;20263;-74
2021/09/25 07:49:01;;;;;;;20.83;16.77;;;;;;;;;;5064735;28;20237;-74
2021/09/25 07:51:28;;;;;;;26.33;16.90;;;;;;;;;;5064232;28;20228;-74
2021/09/25 07:53:54;;;;;;;29.77;17.73;;;;;;;;;;5063745;28;20285;-74
2021/09/25 07:56:23;;;;;;;30.07;17.70;;;;;;;;;;5062879;28;20232;-74
2021/09/25 07:58:50;;;;;;;26.47;18.20;;;;;;;;;;5063276;28;20205;-74
2021/09/25 08:01:16;;;;;;;24.57;17.70;;;;;;;;;;5063863;28;20241;-74
2021/09/25 08:03:43;;;;;;;26.80;18.00;;;;;;;;;;5065059;28;20589;-74
2021/09/25 08:06:10;;;;;;;28.10;18.80;;;;;;;;;;5064505;28;20219;-74
2021/09/25 08:08:37;;;;;;;27.50;18.33;;;;;;;;;;5065062;28;20274;-74
2021/09/25 08:11:04;;;;;;;29.23;18.53;;;;;;;;;;5064894;28;20808;-74
2021/09/25 08:13:32;;;;;;;28.00;17.97;;;;;;;;;;5064485;28;20289;-74
2021/09/25 08:15:59;;;;;;;23.97;17.67;;;;;;;;;;5064371;28;20670;-74
2021/09/25 08:18:26;;;;;;;30.43;19.13;;;;;;;;;;5064013;28;20228;-74
2021/09/25 08:20:52;;;;;;;24.87;17.60;;;;;;;;;;5063727;28;20317;-74
2021/09/25 08:23:19;;;;;;;29.90;19.20;;;;;;;;;;5064781;28;20274;-74
2021/09/25 08:25:45;;;;;;;27.27;18.67;;;;;;;;;;5064053;28;20213;-74
2021/09/25 08:28:12;;;;;;;25.53;18.43;;;;;;;;;;5064490;28;20226;-74
2021/09/25 08:30:40;;;;;;;29.17;18.63;;;;;;;;;;5063700;28;20259;-74
2021/09/25 08:33:07;;;;;;;25.97;17.63;;;;;;;;;;5064283;28;20233;-74
2021/09/25 08:35:33;;;;;;;29.93;19.23;;;;;;;;;;5064503;28;20263;-74
2021/09/25 08:38:00;;;;;;;26.60;17.80;;;;;;;;;;5064345;28;20267;-76
2021/09/25 08:40:31;;;;;;;27.10;18.87;;;;;;;;;;5064141;28;20239;-74
2021/09/25 08:42:57;;;;;;;30.63;17.83;;;;;;;;;;5064665;28;20214;-73
2021/09/25 08:45:24;;;;;;;27.07;18.67;;;;;;;;;;5064284;28;20219;-74
2021/09/25 08:47:55;;;;;;;31.70;18.97;;;;;;;;;;5064695;28;20245;-76
2021/09/25 08:50:21;;;;;;;27.87;18.17;;;;;;;;;;5065045;28;20213;-74
2021/09/25 08:52:48;;;;;;;26.20;18.87;;;;;;;;;;5064513;28;20460;-74
2021/09/25 08:55:15;;;;;;;30.90;20.80;;;;;;;;;;5064184;28;20210;-74
2021/09/25 08:57:41;;;;;;;28.77;19.53;;;;;;;;;;5068050;28;20233;-73
2021/09/25 09:00:30;;;;;;;30.90;19.77;;;;;;;;;;5067554;28;20777;-76
2021/09/25 09:03:17;;;;;;;28.73;20.10;;;;;;;;;;5067399;28;20769;-76
2021/09/25 09:05:44;;;;;;;28.90;20.57;;;;;;;;;;5067906;28;20259;-76
2021/09/25 09:08:10;;;;;;;29.23;19.83;;;;;;;;;;5067922;28;20218;-76
2021/09/25 09:10:38;;;;;;;27.90;20.87;;;;;;;;;;5067925;28;20224;-76
2021/09/25 09:13:06;;;;;;;29.23;19.30;;;;;;;;;;5068499;28;20230;-76
2021/09/25 09:15:33;;;;;;;33.87;20.30;;;;;;;;;;5068113;28;20216;-77
2021/09/25 09:18:01;;;;;;;31.37;21.37;;;;;;;;;;5067911;28;20691;-74
2021/09/25 09:20:28;;;;;;;34.60;21.60;;;;;;;;;;5067045;28;20243;-74
2021/09/25 09:23:11;;;;;;;30.33;20.43;;;;;;;;;;5067551;28;20221;-74
2021/09/25 09:25:39;;;;;;;33.90;21.87;;;;;;;;;;5067994;28;20237;-74
2021/09/25 09:28:11;;;;;;;34.17;20.10;;;;;;;;;;5066790;28;20208;-74
2021/09/25 09:30:46;;;;;;;28.50;19.43;;;;;;;;;;5067057;28;20237;-76
2021/09/25 09:33:27;;;;;;;33.00;20.93;;;;;;;;;;5067280;28;20294;-76
2021/09/25 09:35:54;;;;;;;32.57;21.20;;;;;;;;;;5067038;28;20642;-76
2021/09/25 09:38:23;;;;;;;32.90;21.13;;;;;;;;;;5065635;28;20221;-74
2021/09/25 09:40:51;;;;;;;30.83;21.77;;;;;;;;;;5066218;28;20792;-74
2021/09/25 09:43:18;;;;;;;33.63;22.60;;;;;;;;;;5067042;28;20314;-74
2021/09/25 09:45:45;;;;;;;29.80;20.93;;;;;;;;;;5067497;28;20270;-76
2021/09/25 09:48:11;;;;;;;36.67;21.13;;;;;;;;;;5066665;28;20241;-77
2021/09/25 09:50:42;;;;;;;31.73;21.57;;;;;;;;;;5067050;28;20679;-76
2021/09/25 09:53:13;;;;;;;34.10;23.50;;;;;;;;;;5066929;28;20302;-76
2021/09/25 09:55:39;;;;;;;33.67;21.20;;;;;;;;;;5067529;28;20215;-76
2021/09/25 09:58:07;;;;;;;30.23;21.90;;;;;;;;;;5067332;28;20733;-76
2021/09/25 10:00:34;;;;;;;34.57;22.50;;;;;;;;;;5066921;28;20683;-75
2021/09/25 10:03:01;;;;;;;37.17;22.93;;;;;;;;;;5066574;28;20231;-75
2021/09/25 10:05:27;;;;;;;30.63;21.40;;;;;;;;;;5066522;28;20206;-76
2021/09/25 10:07:55;;;;;;;35.83;23.07;;;;;;;;;;5066701;28;20290;-76
2021/09/25 10:10:22;;;;;;;33.60;23.10;;;;;;;;;;5066587;28;20213;-76
2021/09/25 10:12:49;;;;;;;37.30;23.80;;;;;;;;;;5066563;28;20213;-76
2021/09/25 10:15:16;;;;;;;39.17;22.87;;;;;;;;;;5065983;28;20262;-76
2021/09/25 10:17:43;;;;;;;32.27;23.27;;;;;;;;;;5066801;28;20234;-76
2021/09/25 10:20:11;;;;;;;37.07;23.97;;;;;;;;;;5065992;28;20217;-76
2021/09/25 10:22:39;;;;;;;37.90;24.80;;;;;;;;;;5066672;28;20270;-76
2021/09/25 10:25:12;;;;;;;35.10;23.43;;;;;;;;;;5066336;28;20530;-76
2021/09/25 10:27:39;;;;;;;34.97;24.40;;;;;;;;;;5066783;28;20281;-76
2021/09/25 10:30:10;;;;;;;32.40;23.87;;;;;;;;;;5066236;28;21306;-76
2021/09/25 10:32:42;;;;;;;33.53;25.07;;;;;;;;;;5066052;28;20234;-76
2021/09/25 10:35:13;;;;;;;29.10;22.40;;;;;;;;;;5066114;28;20198;-76
2021/09/25 10:37:42;;;;;;;35.37;23.43;;;;;;;;;;5065891;28;20721;-76
2021/09/25 10:40:14;;;;;;;34.67;23.50;;;;;;;;;;5065545;28;20293;-76
2021/09/25 10:42:44;;;;;;;38.80;24.23;;;;;;;;;;5065755;28;20721;-76
2021/09/25 10:45:13;;;;;;;30.40;22.93;;;;;;;;;;5065417;28;20206;-76
2021/09/25 10:47:40;;;;;;;38.00;24.87;;;;;;;;;;5065905;28;20224;-76
2021/09/25 10:50:12;;;;;;;36.17;24.07;;;;;;;;;;5066257;28;20264;-76
2021/09/25 10:52:53;;;;;;;31.73;23.10;;;;;;;;;;5066100;28;20209;-76
2021/09/25 10:55:29;;;;;;;32.83;22.93;;;;;;;;;;5049783;28;20269;-76
2021/09/25 10:58:26;;;;;;;34.47;24.13;;;;;;;;;;5049136;28;20220;-74
2021/09/25 11:00:56;;;;;;;32.40;23.33;;;;;;;;;;5049247;28;20228;-74
2021/09/25 11:03:51;;;;;;;37.20;24.63;;;;;;;;;;5045881;28;20300;-73
2021/09/25 11:06:22;;;;;;;36.90;24.97;;;;;;;;;;5045139;28;20211;-73
2021/09/25 11:08:52;;;;;;;35.03;23.83;;;;;;;;;;5045207;28;20215;-73
2021/09/25 11:11:31;;;;;;;35.40;25.53;;;;;;;;;;5046008;28;20233;-73
2021/09/25 11:14:16;;;;;;;34.17;24.97;;;;;;;;;;5045513;28;20286;-73
2021/09/25 11:16:55;;;;;;;41.67;26.00;;;;;;;;;;5045746;28;20237;-73
2021/09/25 11:19:37;;;;;;;33.43;24.37;;;;;;;;;;5044610;28;20213;-73
2021/09/25 11:22:06;;;;;;;34.50;24.20;;;;;;;;;;5045903;28;20237;-73
2021/09/25 11:24:34;;;;;;;36.40;23.87;;;;;;;;;;5045621;28;20216;-73
2021/09/25 11:27:03;;;;;;;32.47;23.83;;;;;;;;;;5045392;28;20225;-73
2021/09/25 11:29:30;;;;;;;35.77;24.27;;;;;;;;;;5044773;28;20689;-74
2021/09/25 11:32:06;;;;;;;34.47;25.03;;;;;;;;;;5045512;28;20218;-73
2021/09/25 11:34:34;;;;;;;33.23;25.10;;;;;;;;;;5047736;28;20833;-74
2021/09/25 11:37:04;;;;;;;33.20;25.70;;;;;;;;;;5045206;28;20225;-74
2021/09/25 11:39:40;;;;;;;32.70;25.03;;;;;;;;;;5046379;28;20268;-77
2021/09/25 11:42:17;;;;;;;33.10;25.70;;;;;;;;;;5045592;28;20838;-74
2021/09/25 11:44:45;;;;;;;29.47;24.60;;;;;;;;;;5046171;28;20268;-77
2021/09/25 11:47:26;;;;;;;34.63;25.40;;;;;;;;;;5046244;28;20716;-74
2021/09/25 11:49:53;;;;;;;32.17;24.13;;;;;;;;;;5046728;28;20243;-74
2021/09/25 11:52:19;;;;;;;35.63;26.67;;;;;;;;;;5044464;28;20287;-74
2021/09/25 11:54:46;;;;;;;30.27;23.67;;;;;;;;;;5060953;28;20253;-74
2021/09/25 11:57:16;;;;;;;29.67;23.33;;;;;;;;;;5065057;28;20267;-76
2021/09/25 11:59:42;;;;;;;31.70;22.73;;;;;;;;;;5064797;28;20214;-74
2021/09/25 12:02:09;;;;;;;32.63;24.17;;;;;;;;;;5064396;28;20242;-76
2021/09/25 12:04:40;;;;;;;36.60;24.57;;;;;;;;;;5064716;28;20225;-76
2021/09/25 12:07:07;;;;;;;34.90;24.93;;;;;;;;;;5065476;28;20267;-76
2021/09/25 12:09:41;;;;;;;30.93;25.30;;;;;;;;;;5064907;28;20270;-76
2021/09/25 12:12:07;;;;;;;37.43;24.00;;;;;;;;;;5064886;28;20207;-76
2021/09/25 12:14:41;;;;;;;36.20;26.30;;;;;;;;;;5065031;28;20214;-76
2021/09/25 12:17:08;;;;;;;29.77;24.90;;;;;;;;;;5064957;28;20311;-76
2021/09/25 12:19:34;;;;;;;32.03;26.27;;;;;;;;;;5064720;28;20218;-76
2021/09/25 12:22:01;;;;;;;33.03;23.70;;;;;;;;;;5065315;28;20287;-77
2021/09/25 12:24:27;;;;;;;33.80;24.87;;;;;;;;;;5066007;28;20221;-76
2021/09/25 12:26:56;;;;;;;30.67;25.60;;;;;;;;;;5064708;28;20217;-76
2021/09/25 12:29:24;;;;;;;32.70;27.03;;;;;;;;;;5065110;28;20267;-76
2021/09/25 12:32:01;;;;;;;31.17;25.47;;;;;;;;;;5068532;28;20206;-76
2021/09/25 12:34:28;;;;;;;35.53;26.03;;;;;;;;;;5069724;28;20202;-77
2021/09/25 12:36:57;;;;;;;32.00;25.47;;;;;;;;;;5068283;28;20632;-76
2021/09/25 12:39:27;;;;;;;34.30;26.03;;;;;;;;;;5068742;28;20214;-77
2021/09/25 12:41:55;;;;;;;33.40;26.67;;;;;;;;;;5068040;28;20237;-74
2021/09/25 12:44:24;;;;;;;30.93;24.90;;;;;;;;;;5068417;28;20252;-74
2021/09/25 12:46:52;;;;;;;34.77;25.10;;;;;;;;;;5067817;28;20217;-74
2021/09/25 12:49:25;;;;;;;35.37;24.30;;;;;;;;;;5067921;28;20218;-75
2021/09/25 12:51:55;;;;;;;33.30;25.33;;;;;;;;;;5067142;28;20272;-74
2021/09/25 12:54:26;;;;;;;31.87;24.43;;;;;;;;;;5065388;28;20305;-76
2021/09/25 12:56:55;;;;;;;29.10;24.50;;;;;;;;;;5066747;28;20199;-76
2021/09/25 12:59:27;;;;;;;35.33;26.90;;;;;;;;;;5068198;28;20219;-76
2021/09/25 13:01:54;;;;;;;32.03;25.60;;;;;;;;;;5068180;28;20230;-77
2021/09/25 13:04:24;;;;;;;33.27;26.40;;;;;;;;;;5067389;28;20219;-75
2021/09/25 13:06:52;;;;;;;30.13;24.53;;;;;;;;;;5067706;28;20462;-75
2021/09/25 13:09:19;;;;;;;34.77;25.80;;;;;;;;;;5068373;28;20676;-74
2021/09/25 13:12:09;;;;;;;30.43;22.60;;;;;;;;;;5067930;28;20206;-74
2021/09/25 13:14:36;;;;;;;29.67;24.33;;;;;;;;;;5068216;28;20207;-75
2021/09/25 13:17:03;;;;;;;32.20;24.63;;;;;;;;;;5068726;28;20258;-74
2021/09/25 13:19:31;;;;;;;30.87;24.13;;;;;;;;;;5067384;28;20214;-75
2021/09/25 13:22:00;;;;;;;34.40;25.23;;;;;;;;;;5067987;28;20237;-74
2021/09/25 13:24:26;;;;;;;32.97;25.87;;;;;;;;;;5067308;28;20210;-75
2021/09/25 13:26:53;;;;;;;28.87;25.03;;;;;;;;;;5067588;28;20265;-75
2021/09/25 13:29:20;;;;;;;32.93;26.33;;;;;;;;;;5067300;28;21273;-75
2021/09/25 13:31:47;;;;;;;29.07;25.33;;;;;;;;;;5067291;28;20903;-75
2021/09/25 13:34:16;;;;;;;28.07;25.07;;;;;;;;;;5067394;28;20244;-73
2021/09/25 13:36:44;;;;;;;30.37;23.80;;;;;;;;;;5067196;28;20209;-75
2021/09/25 13:39:10;;;;;;;30.30;24.10;;;;;;;;;;5067114;28;20218;-74
2021/09/25 13:41:37;;;;;;;30.17;24.80;;;;;;;;;;5067151;28;20265;-74
2021/09/25 13:44:03;;;;;;;30.87;24.50;;;;;;;;;;5068020;28;20214;-74
2021/09/25 13:46:30;;;;;;;31.33;25.07;;;;;;;;;;5067168;28;20726;-74
2021/09/25 13:48:56;;;;;;;28.90;25.50;;;;;;;;;;5066342;28;20225;-74
2021/09/25 13:51:23;;;;;;;34.30;25.83;;;;;;;;;;5067035;28;20228;-75
2021/09/25 13:53:51;;;;;;;31.07;25.43;;;;;;;;;;5066820;28;20250;-75
2021/09/25 13:56:17;;;;;;;27.43;24.43;;;;;;;;;;5067190;28;20271;-75
2021/09/25 13:58:43;;;;;;;33.40;26.13;;;;;;;;;;5066730;28;20221;-75
2021/09/25 14:01:10;;;;;;;29.97;25.10;;;;;;;;;;5066833;28;21017;-75
2021/09/25 14:03:36;;;;;;;31.40;26.43;;;;;;;;;;5066738;28;20295;-75
2021/09/25 14:06:03;;;;;;;30.17;25.87;;;;;;;;;;5067050;28;20259;-75
2021/09/25 14:08:30;;;;;;;34.47;25.97;;;;;;;;;;5067468;28;20225;-75
2021/09/25 14:10:58;;;;;;;30.40;27.07;;;;;;;;;;5066618;28;20275;-75
2021/09/25 14:13:24;;;;;;;30.97;25.93;;;;;;;;;;5066946;28;20206;-75
2021/09/25 14:15:51;;;;;;;32.00;27.47;;;;;;;;;;5066297;28;20848;-74
2021/09/25 14:18:17;;;;;;;32.87;25.47;;;;;;;;;;5066206;28;20245;-75
2021/09/25 14:20:44;;;;;;;34.43;26.93;;;;;;;;;;5066417;28;20214;-75
2021/09/25 14:23:13;;;;;;;29.27;26.10;;;;;;;;;;5066296;28;20695;-77
2021/09/25 14:25:40;;;;;;;31.60;28.07;;;;;;;;;;5066299;28;20218;-75
2021/09/25 14:28:09;;;;;;;32.87;27.80;;;;;;;;;;5066347;28;20213;-74